Time;durP1;ratioP1;P1;durP2;ratioP2;P2;SDS_P1;SDS_P2;PMS_P1;PMS_P2;Temp;Humidity;BMP_temperature;BMP_pressure;BME280_temperature;BME280_humidity;BME280_pressure;Samples;Min_cycle;Max_cycle;Signal;HPM_P1;HPM_P2
2024/03/18 00:02:02;;;;;;;32.77;15.27;;;;;;;;;;5072659;28;20200;-78
2024/03/18 00:04:28;;;;;;;31.37;15.73;;;;;;;;;;5055188;28;20060;-77
2024/03/18 00:06:53;;;;;;;28.03;13.97;;;;;;;;;;5055705;28;20195;-77
2024/03/18 00:09:19;;;;;;;27.33;14.33;;;;;;;;;;5073144;28;20020;-78
2024/03/18 00:11:45;;;;;;;30.80;16.03;;;;;;;;;;5073154;28;20028;-76
2024/03/18 00:14:10;;;;;;;23.30;14.13;;;;;;;;;;5073313;28;20077;-77
2024/03/18 00:16:36;;;;;;;28.93;13.77;;;;;;;;;;5073513;28;20028;-77
2024/03/18 00:19:01;;;;;;;31.63;14.93;;;;;;;;;;5073188;28;20491;-78
2024/03/18 00:21:27;;;;;;;27.77;15.67;;;;;;;;;;5055637;28;20032;-78
2024/03/18 00:23:52;;;;;;;38.07;15.30;;;;;;;;;;5073214;28;20033;-78
2024/03/18 00:26:18;;;;;;;24.27;14.43;;;;;;;;;;5055644;28;20024;-78
2024/03/18 00:28:43;;;;;;;28.20;14.83;;;;;;;;;;5073555;28;20063;-78
2024/03/18 00:31:10;;;;;;;33.70;15.30;;;;;;;;;;5073101;28;20043;-79
2024/03/18 00:33:36;;;;;;;29.40;14.53;;;;;;;;;;5038621;28;20495;-78
2024/03/18 00:36:02;;;;;;;29.17;14.50;;;;;;;;;;5038852;28;20043;-78
2024/03/18 00:38:28;;;;;;;29.13;14.60;;;;;;;;;;5072414;28;20392;-77
2024/03/18 00:41:44;;;;;;;31.83;16.80;;;;;;;;;;5055478;28;20028;-78
2024/03/18 00:43:42;;;;;;;29.97;14.30;;;;;;;;;;5073547;28;20055;-80
2024/03/18 00:46:08;;;;;;;32.40;15.03;;;;;;;;;;5073029;28;20025;-78
2024/03/18 00:48:34;;;;;;;30.40;15.37;;;;;;;;;;5072548;28;20033;-77
2024/03/18 00:51:00;;;;;;;36.33;15.43;;;;;;;;;;5055277;28;20558;-76
2024/03/18 00:53:26;;;;;;;31.33;15.33;;;;;;;;;;5073091;28;20028;-78
2024/03/18 00:55:52;;;;;;;28.23;15.10;;;;;;;;;;5072728;28;20464;-77
2024/03/18 00:58:17;;;;;;;25.63;13.80;;;;;;;;;;5073092;28;20536;-78
2024/03/18 01:00:43;;;;;;;33.80;15.93;;;;;;;;;;5072807;28;20024;-78
2024/03/18 01:03:09;;;;;;;36.17;15.27;;;;;;;;;;5073076;28;20541;-78
2024/03/18 01:05:34;;;;;;;34.60;15.13;;;;;;;;;;5073105;28;20025;-76
2024/03/18 01:08:03;;;;;;;33.23;14.03;;;;;;;;;;5054991;28;20116;-78
2024/03/18 01:10:29;;;;;;;28.83;14.77;;;;;;;;;;5055024;28;20479;-77
2024/03/18 01:12:55;;;;;;;31.30;14.60;;;;;;;;;;5073103;28;20065;-77
2024/03/18 01:15:21;;;;;;;30.40;14.80;;;;;;;;;;5072920;28;20041;-78
2024/03/18 01:17:47;;;;;;;34.73;14.83;;;;;;;;;;5072579;28;20032;-78
2024/03/18 01:20:16;;;;;;;29.83;14.87;;;;;;;;;;5054475;28;20029;-78
2024/03/18 01:22:42;;;;;;;32.00;16.20;;;;;;;;;;5072456;28;20035;-76
2024/03/18 01:25:13;;;;;;;33.83;15.70;;;;;;;;;;5072915;28;20071;-78
2024/03/18 01:27:43;;;;;;;33.20;15.73;;;;;;;;;;5054411;28;20543;-78
2024/03/18 01:30:13;;;;;;;33.93;15.63;;;;;;;;;;5054204;28;20056;-79
2024/03/18 01:32:40;;;;;;;34.83;16.17;;;;;;;;;;5054812;28;20378;-78
2024/03/18 01:35:06;;;;;;;34.30;15.47;;;;;;;;;;5037976;28;20033;-79
2024/03/18 01:37:32;;;;;;;31.10;14.13;;;;;;;;;;5072871;28;20097;-78
2024/03/18 01:39:58;;;;;;;31.90;15.17;;;;;;;;;;5072616;28;20032;-76
2024/03/18 01:42:24;;;;;;;27.93;14.33;;;;;;;;;;5054480;28;20150;-79
2024/03/18 01:44:54;;;;;;;31.17;15.33;;;;;;;;;;5072827;28;20055;-77
2024/03/18 01:47:21;;;;;;;31.33;15.20;;;;;;;;;;5072934;28;20558;-77
2024/03/18 01:49:51;;;;;;;29.97;14.77;;;;;;;;;;5054049;28;20056;-76
2024/03/18 01:52:20;;;;;;;32.30;15.37;;;;;;;;;;5054247;28;20119;-77
2024/03/18 01:54:47;;;;;;;32.83;14.10;;;;;;;;;;5054582;28;20036;-78
2024/03/18 01:57:13;;;;;;;30.40;14.30;;;;;;;;;;5053797;28;20045;-77
2024/03/18 01:59:38;;;;;;;27.27;14.10;;;;;;;;;;5072808;28;20033;-77
2024/03/18 02:02:04;;;;;;;31.67;13.70;;;;;;;;;;5074808;28;20060;-78
2024/03/18 02:04:30;;;;;;;32.00;15.93;;;;;;;;;;5075784;28;20028;-78
2024/03/18 02:06:56;;;;;;;35.87;16.03;;;;;;;;;;5075505;28;20820;-78
2024/03/18 02:09:25;;;;;;;29.50;14.40;;;;;;;;;;5058030;28;20032;-78
2024/03/18 02:11:51;;;;;;;27.77;13.67;;;;;;;;;;5076029;28;20422;-78
2024/03/18 02:14:17;;;;;;;39.53;15.57;;;;;;;;;;5057471;28;20396;-78
2024/03/18 02:16:43;;;;;;;31.50;14.70;;;;;;;;;;5075277;28;20384;-77
2024/03/18 02:19:09;;;;;;;31.80;15.33;;;;;;;;;;5075344;28;20025;-78
2024/03/18 02:21:35;;;;;;;34.10;15.40;;;;;;;;;;5057522;28;20032;-75
2024/03/18 02:24:03;;;;;;;26.23;14.73;;;;;;;;;;5057773;28;20035;-78
2024/03/18 02:26:31;;;;;;;28.63;14.97;;;;;;;;;;5056843;28;20112;-77
2024/03/18 02:28:56;;;;;;;30.80;15.27;;;;;;;;;;5056872;28;20055;-77
2024/03/18 02:31:22;;;;;;;31.07;15.83;;;;;;;;;;5075266;28;20028;-78
2024/03/18 02:33:48;;;;;;;33.53;16.77;;;;;;;;;;5056488;28;20024;-78
2024/03/18 02:36:13;;;;;;;30.90;17.80;;;;;;;;;;5075548;28;20028;-78
2024/03/18 02:38:39;;;;;;;32.80;17.33;;;;;;;;;;5074772;28;20037;-78
2024/03/18 02:41:05;;;;;;;32.53;16.17;;;;;;;;;;5057682;28;20366;-78
2024/03/18 02:43:31;;;;;;;37.27;16.50;;;;;;;;;;5076086;28;20111;-79
2024/03/18 02:45:56;;;;;;;27.87;15.43;;;;;;;;;;5057647;28;20028;-78
2024/03/18 02:48:24;;;;;;;31.37;15.57;;;;;;;;;;5075401;28;20465;-78
2024/03/18 02:50:50;;;;;;;31.27;15.20;;;;;;;;;;5075687;28;20075;-78
2024/03/18 02:53:16;;;;;;;34.13;15.87;;;;;;;;;;5075421;28;20068;-77
2024/03/18 02:55:41;;;;;;;28.80;14.63;;;;;;;;;;5057353;28;20060;-79
2024/03/18 02:58:07;;;;;;;34.07;15.43;;;;;;;;;;5074244;28;20119;-78
2024/03/18 03:00:32;;;;;;;36.73;16.40;;;;;;;;;;5057150;28;20028;-78
2024/03/18 03:02:58;;;;;;;36.30;15.20;;;;;;;;;;5056383;28;20025;-77
2024/03/18 03:05:24;;;;;;;31.07;14.80;;;;;;;;;;5057260;28;20052;-78
2024/03/18 03:07:50;;;;;;;35.67;14.50;;;;;;;;;;5057010;28;20049;-76
2024/03/18 03:10:15;;;;;;;35.53;15.23;;;;;;;;;;5057168;28;20033;-79
2024/03/18 03:12:41;;;;;;;33.83;15.37;;;;;;;;;;5074473;28;20031;-76
2024/03/18 03:15:08;;;;;;;29.43;13.83;;;;;;;;;;5074600;28;20024;-78
2024/03/18 03:17:34;;;;;;;27.67;15.07;;;;;;;;;;5074298;28;20039;-78
2024/03/18 03:20:00;;;;;;;34.73;15.27;;;;;;;;;;5074263;28;20024;-78
2024/03/18 03:22:27;;;;;;;34.17;15.50;;;;;;;;;;5073648;28;20146;-78
2024/03/18 03:24:53;;;;;;;31.20;15.10;;;;;;;;;;5056677;28;20024;-77
2024/03/18 03:27:19;;;;;;;36.53;16.17;;;;;;;;;;5074664;28;20021;-78
2024/03/18 03:29:46;;;;;;;32.50;14.30;;;;;;;;;;5055962;28;20028;-78
2024/03/18 03:32:13;;;;;;;36.60;15.80;;;;;;;;;;5074366;28;20021;-76
2024/03/18 03:34:39;;;;;;;30.00;16.30;;;;;;;;;;5056737;28;20025;-79
2024/03/18 03:37:05;;;;;;;29.10;15.23;;;;;;;;;;5074849;28;20051;-78
2024/03/18 03:39:30;;;;;;;38.97;16.43;;;;;;;;;;5056376;28;20028;-78
2024/03/18 03:41:56;;;;;;;37.70;15.50;;;;;;;;;;5055847;28;20033;-77
2024/03/18 03:44:21;;;;;;;36.07;17.63;;;;;;;;;;5074326;28;20028;-77
2024/03/18 03:46:50;;;;;;;32.97;14.70;;;;;;;;;;5073717;28;20032;-77
2024/03/18 03:49:19;;;;;;;27.83;15.53;;;;;;;;;;5073660;28;20021;-77
2024/03/18 03:51:45;;;;;;;29.50;15.37;;;;;;;;;;5074001;28;20048;-79
2024/03/18 03:54:11;;;;;;;33.53;15.40;;;;;;;;;;5055949;28;20032;-78
2024/03/18 03:56:37;;;;;;;33.57;15.13;;;;;;;;;;5039213;28;20032;-79
2024/03/18 03:59:02;;;;;;;37.03;16.77;;;;;;;;;;5073159;28;20028;-78
2024/03/18 04:01:28;;;;;;;33.77;16.00;;;;;;;;;;5073797;28;20439;-78
2024/03/18 04:03:54;;;;;;;34.60;15.23;;;;;;;;;;5055898;28;20451;-78
2024/03/18 04:06:19;;;;;;;37.33;16.83;;;;;;;;;;5055168;28;20420;-77
2024/03/18 04:08:45;;;;;;;32.37;14.97;;;;;;;;;;5056194;28;20089;-77
2024/03/18 04:11:10;;;;;;;30.93;15.53;;;;;;;;;;5056416;28;20023;-79
2024/03/18 04:13:36;;;;;;;31.27;16.17;;;;;;;;;;5074219;28;20534;-77
2024/03/18 04:16:03;;;;;;;33.57;15.07;;;;;;;;;;5058269;28;20146;-78
2024/03/18 04:18:29;;;;;;;29.80;16.03;;;;;;;;;;5061795;28;20064;-78
2024/03/18 04:20:55;;;;;;;32.77;15.60;;;;;;;;;;5055628;28;20048;-78
2024/03/18 04:23:20;;;;;;;32.03;15.10;;;;;;;;;;5055137;28;20040;-78
2024/03/18 04:25:46;;;;;;;30.23;15.67;;;;;;;;;;5073747;28;20063;-78
2024/03/18 04:28:14;;;;;;;25.87;14.23;;;;;;;;;;5073692;28;20024;-77
2024/03/18 04:30:41;;;;;;;33.13;15.20;;;;;;;;;;5056149;28;20358;-78
2024/03/18 04:33:08;;;;;;;37.33;14.93;;;;;;;;;;5073296;28;20055;-78
2024/03/18 04:35:36;;;;;;;38.50;16.37;;;;;;;;;;5055078;28;20024;-78
2024/03/18 04:38:02;;;;;;;37.63;15.37;;;;;;;;;;5073231;28;20435;-78
2024/03/18 04:40:28;;;;;;;29.00;15.90;;;;;;;;;;5073173;28;20036;-78
2024/03/18 04:42:57;;;;;;;34.73;15.57;;;;;;;;;;5055898;28;20089;-76
2024/03/18 04:45:23;;;;;;;33.97;15.07;;;;;;;;;;5079409;28;20050;-76
2024/03/18 04:47:53;;;;;;;33.33;15.70;;;;;;;;;;5039826;28;20128;-77
2024/03/18 04:50:20;;;;;;;35.53;15.20;;;;;;;;;;5054962;28;20375;-78
2024/03/18 04:52:47;;;;;;;32.17;14.93;;;;;;;;;;5073114;28;20028;-78
2024/03/18 04:55:13;;;;;;;35.47;16.07;;;;;;;;;;5073556;28;20025;-77
2024/03/18 04:57:39;;;;;;;32.33;16.90;;;;;;;;;;5073686;28;20051;-79
2024/03/18 05:00:06;;;;;;;35.03;15.83;;;;;;;;;;5055528;28;20059;-79
2024/03/18 05:02:32;;;;;;;31.40;13.93;;;;;;;;;;5073469;28;20031;-80
2024/03/18 05:04:57;;;;;;;34.77;16.70;;;;;;;;;;5073129;28;20028;-77
2024/03/18 05:07:23;;;;;;;37.63;14.93;;;;;;;;;;5072786;28;20054;-78
2024/03/18 05:09:53;;;;;;;37.17;17.00;;;;;;;;;;5073183;28;20032;-77
2024/03/18 05:12:19;;;;;;;30.80;14.80;;;;;;;;;;5055193;28;20020;-79
2024/03/18 05:14:45;;;;;;;35.33;15.97;;;;;;;;;;5054749;28;20032;-78
2024/03/18 05:17:10;;;;;;;32.00;16.40;;;;;;;;;;5072558;28;20047;-78
2024/03/18 05:19:36;;;;;;;32.43;14.67;;;;;;;;;;5055001;28;20472;-77
2024/03/18 05:22:01;;;;;;;34.60;14.70;;;;;;;;;;5072947;28;20029;-78
2024/03/18 05:24:27;;;;;;;30.50;14.13;;;;;;;;;;5072190;28;20036;-79
2024/03/18 05:26:52;;;;;;;41.97;17.33;;;;;;;;;;5072914;28;20050;-77
2024/03/18 05:29:18;;;;;;;31.23;14.27;;;;;;;;;;5072517;28;20021;-79
2024/03/18 05:31:45;;;;;;;33.50;16.40;;;;;;;;;;5072397;28;20017;-78
2024/03/18 05:34:11;;;;;;;33.23;15.33;;;;;;;;;;5072760;28;20020;-77
2024/03/18 05:36:37;;;;;;;35.83;16.90;;;;;;;;;;5056349;28;20100;-77
2024/03/18 05:39:04;;;;;;;38.80;15.47;;;;;;;;;;5076556;28;20047;-77
2024/03/18 05:41:30;;;;;;;39.93;15.40;;;;;;;;;;5076046;28;20111;-78
2024/03/18 05:43:55;;;;;;;35.97;16.50;;;;;;;;;;5076554;28;20051;-77
2024/03/18 05:46:24;;;;;;;45.87;16.53;;;;;;;;;;5075591;28;20040;-78
2024/03/18 05:48:51;;;;;;;34.37;15.43;;;;;;;;;;5076277;28;20032;-78
2024/03/18 05:51:17;;;;;;;30.03;15.03;;;;;;;;;;5057342;28;20147;-78
2024/03/18 05:53:42;;;;;;;25.03;14.83;;;;;;;;;;5075989;28;20052;-78
2024/03/18 05:56:08;;;;;;;30.23;15.07;;;;;;;;;;5077509;28;20063;-78
2024/03/18 05:58:39;;;;;;;34.53;16.63;;;;;;;;;;5058176;28;20047;-78
2024/03/18 06:01:11;;;;;;;34.23;15.73;;;;;;;;;;5076716;28;20082;-77
2024/03/18 06:03:40;;;;;;;34.67;16.60;;;;;;;;;;5043168;28;20028;-78
2024/03/18 06:06:07;;;;;;;37.03;15.73;;;;;;;;;;5058435;28;20414;-79
2024/03/18 06:08:34;;;;;;;31.73;15.60;;;;;;;;;;5076012;28;20040;-78
2024/03/18 06:11:00;;;;;;;34.40;15.43;;;;;;;;;;5076629;28;20427;-78
2024/03/18 06:13:26;;;;;;;37.23;16.00;;;;;;;;;;5057848;28;20090;-80
2024/03/18 06:15:52;;;;;;;26.77;15.30;;;;;;;;;;5058936;28;20036;-79
2024/03/18 06:18:18;;;;;;;36.10;15.30;;;;;;;;;;5058163;28;20324;-78
2024/03/18 06:20:47;;;;;;;35.27;15.33;;;;;;;;;;5075977;28;20032;-77
2024/03/18 06:23:16;;;;;;;33.90;14.43;;;;;;;;;;5075860;28;20021;-78
2024/03/18 06:25:55;;;;;;;33.23;16.63;;;;;;;;;;5076118;28;20467;-78
2024/03/18 06:28:21;;;;;;;28.37;13.40;;;;;;;;;;5071335;28;20028;-79
2024/03/18 06:30:50;;;;;;;30.00;15.30;;;;;;;;;;5075401;28;20032;-77
2024/03/18 06:33:17;;;;;;;28.50;14.37;;;;;;;;;;5056991;28;20025;-76
2024/03/18 06:35:43;;;;;;;29.33;12.27;;;;;;;;;;5057218;28;20028;-77
2024/03/18 06:38:10;;;;;;;25.10;12.27;;;;;;;;;;5075162;28;20067;-80
2024/03/18 06:40:36;;;;;;;23.00;12.93;;;;;;;;;;5057530;28;20044;-77
2024/03/18 06:43:01;;;;;;;27.07;11.33;;;;;;;;;;5075394;28;20027;-76
2024/03/18 06:45:27;;;;;;;18.93;11.47;;;;;;;;;;5056810;28;20050;-77
2024/03/18 06:47:52;;;;;;;27.97;12.43;;;;;;;;;;5056582;28;20074;-77
2024/03/18 06:50:20;;;;;;;22.93;11.13;;;;;;;;;;5056992;28;20056;-78
2024/03/18 06:52:46;;;;;;;31.30;12.30;;;;;;;;;;5056194;28;20310;-79
2024/03/18 06:55:11;;;;;;;28.50;11.83;;;;;;;;;;5057272;28;20444;-79
2024/03/18 06:57:39;;;;;;;24.00;11.67;;;;;;;;;;5074630;28;20381;-78
2024/03/18 07:00:06;;;;;;;25.50;10.63;;;;;;;;;;5074982;28;20504;-78
2024/03/18 07:02:34;;;;;;;19.77;9.57;;;;;;;;;;5072799;28;20047;-78
2024/03/18 07:04:59;;;;;;;16.80;9.70;;;;;;;;;;5078249;28;20473;-78
2024/03/18 07:07:26;;;;;;;18.10;8.00;;;;;;;;;;5062327;28;20039;-78
2024/03/18 07:09:53;;;;;;;19.07;11.00;;;;;;;;;;5063107;28;20111;-77
2024/03/18 07:12:20;;;;;;;37.73;16.70;;;;;;;;;;5089800;28;20028;-78
2024/03/18 07:14:47;;;;;;;34.07;9.77;;;;;;;;;;5078905;28;20036;-78
2024/03/18 07:17:14;;;;;;;15.20;6.70;;;;;;;;;;5085120;28;20032;-79
2024/03/18 07:19:40;;;;;;;25.43;7.53;;;;;;;;;;5078841;28;20050;-77
2024/03/18 07:22:06;;;;;;;18.70;7.27;;;;;;;;;;5088805;28;20039;-77
2024/03/18 07:24:32;;;;;;;18.10;7.07;;;;;;;;;;5060782;28;20027;-76
2024/03/18 07:26:57;;;;;;;14.73;7.80;;;;;;;;;;5063541;28;20028;-77
2024/03/18 07:29:24;;;;;;;24.40;9.77;;;;;;;;;;5052669;28;20337;-78
2024/03/18 07:31:56;;;;;;;25.07;10.30;;;;;;;;;;5086167;28;20035;-78
2024/03/18 07:34:23;;;;;;;19.00;9.13;;;;;;;;;;5065148;28;20564;-78
2024/03/18 07:36:50;;;;;;;19.07;8.00;;;;;;;;;;5078920;28;20035;-78
2024/03/18 07:39:17;;;;;;;20.00;6.67;;;;;;;;;;5069093;28;20074;-77
2024/03/18 07:41:43;;;;;;;16.77;7.07;;;;;;;;;;5083421;28;20545;-78
2024/03/18 07:44:08;;;;;;;19.50;6.93;;;;;;;;;;5047736;28;20024;-78
2024/03/18 07:46:34;;;;;;;13.83;6.87;;;;;;;;;;5088470;28;20084;-78
2024/03/18 07:49:00;;;;;;;12.33;6.13;;;;;;;;;;5072250;28;20032;-78
2024/03/18 07:51:26;;;;;;;17.53;8.57;;;;;;;;;;5087263;28;20056;-79
2024/03/18 07:53:55;;;;;;;18.40;7.33;;;;;;;;;;5057236;28;20056;-78
2024/03/18 07:56:21;;;;;;;17.63;7.50;;;;;;;;;;5061126;28;20105;-77
2024/03/18 07:58:48;;;;;;;15.20;6.27;;;;;;;;;;5083464;28;20036;-80
2024/03/18 08:01:14;;;;;;;16.97;7.43;;;;;;;;;;5096762;28;20063;-76
2024/03/18 08:03:39;;;;;;;21.27;8.10;;;;;;;;;;5081162;28;20043;-78
2024/03/18 08:06:10;;;;;;;13.37;6.37;;;;;;;;;;5081679;28;20076;-77
2024/03/18 08:08:37;;;;;;;15.25;5.95;;;;;;;;;;5085455;28;20590;-77
2024/03/18 08:11:03;;;;;;;14.77;5.53;;;;;;;;;;5044487;28;20040;-79
2024/03/18 08:13:29;;;;;;;20.03;7.00;;;;;;;;;;5082460;28;20024;-79
2024/03/18 08:15:56;;;;;;;17.00;6.77;;;;;;;;;;5059365;28;20024;-77
2024/03/18 08:18:22;;;;;;;12.67;5.80;;;;;;;;;;5067566;28;20067;-78
2024/03/18 08:20:48;;;;;;;10.63;5.07;;;;;;;;;;5081483;28;20029;-77
2024/03/18 08:23:13;;;;;;;10.30;4.03;;;;;;;;;;5079411;28;20036;-79
2024/03/18 08:25:39;;;;;;;11.83;5.20;;;;;;;;;;5090500;28;20030;-79
2024/03/18 08:28:08;;;;;;;17.60;5.30;;;;;;;;;;5072029;28;20025;-80
2024/03/18 08:30:38;;;;;;;11.33;5.50;;;;;;;;;;5083527;28;20421;-79
2024/03/18 08:33:05;;;;;;;10.87;5.87;;;;;;;;;;5081985;28;20526;-77
2024/03/18 08:35:42;;;;;;;19.13;6.10;;;;;;;;;;5072889;28;20040;-79
2024/03/18 08:38:09;;;;;;;13.57;6.20;;;;;;;;;;5080204;28;20033;-79
2024/03/18 08:40:35;;;;;;;23.60;7.17;;;;;;;;;;5066303;28;20029;-79
2024/03/18 08:43:00;;;;;;;17.30;6.70;;;;;;;;;;5079778;28;20039;-81
2024/03/18 08:45:29;;;;;;;12.60;5.50;;;;;;;;;;5043749;28;20040;-81
2024/03/18 08:47:55;;;;;;;12.73;6.80;;;;;;;;;;5080012;28;20101;-79
2024/03/18 08:50:23;;;;;;;15.17;6.53;;;;;;;;;;5081847;28;20496;-79
2024/03/18 08:52:51;;;;;;;25.77;6.43;;;;;;;;;;5062881;28;20020;-78
2024/03/18 08:55:19;;;;;;;18.70;6.30;;;;;;;;;;5073092;28;20070;-79
2024/03/18 08:57:45;;;;;;;15.40;6.33;;;;;;;;;;5068579;28;20029;-79
2024/03/18 09:00:19;;;;;;;25.83;6.97;;;;;;;;;;5098059;28;20035;-82
2024/03/18 09:02:45;;;;;;;18.17;6.15;;;;;;;;;;5082127;28;20033;-81
2024/03/18 09:05:12;;;;;;;17.23;7.07;;;;;;;;;;5061550;28;20035;-79
2024/03/18 09:07:38;;;;;;;13.55;6.13;;;;;;;;;;5065342;28;20082;-79
2024/03/18 09:10:04;;;;;;;15.57;6.25;;;;;;;;;;5063428;28;20100;-77
2024/03/18 09:12:30;;;;;;;12.05;5.65;;;;;;;;;;5085549;28;20154;-82
2024/03/18 09:14:55;;;;;;;13.55;6.32;;;;;;;;;;5084717;28;20306;-81
2024/03/18 09:17:21;;;;;;;13.68;5.90;;;;;;;;;;5088353;28;20032;-80
2024/03/18 09:19:47;;;;;;;14.95;6.00;;;;;;;;;;5066858;28;20032;-79
2024/03/18 09:22:17;;;;;;;14.77;5.60;;;;;;;;;;5084906;28;20024;-79
2024/03/18 09:24:43;;;;;;;10.43;5.82;;;;;;;;;;5085362;28;20040;-82
2024/03/18 09:27:11;;;;;;;13.93;5.30;;;;;;;;;;5067038;28;20028;-80
2024/03/18 09:29:40;;;;;;;12.13;5.38;;;;;;;;;;5067575;28;20032;-79
2024/03/18 09:32:06;;;;;;;7.32;3.88;;;;;;;;;;5065406;28;20055;-79
2024/03/18 09:34:31;;;;;;;8.88;5.20;;;;;;;;;;5070404;28;20028;-78
2024/03/18 09:36:57;;;;;;;14.50;4.22;;;;;;;;;;5068819;28;20062;-83
2024/03/18 09:39:24;;;;;;;13.57;5.07;;;;;;;;;;5087445;28;20036;-80
2024/03/18 09:41:55;;;;;;;17.10;5.45;;;;;;;;;;5075974;28;20032;-78
2024/03/18 09:44:21;;;;;;;7.85;3.67;;;;;;;;;;5073070;28;20122;-82
2024/03/18 09:46:48;;;;;;;12.73;3.88;;;;;;;;;;5062979;28;20086;-79
2024/03/18 09:49:17;;;;;;;9.27;4.00;;;;;;;;;;5081927;28;20032;-81
2024/03/18 09:51:45;;;;;;;7.28;4.03;;;;;;;;;;5084042;28;20385;-80
2024/03/18 09:54:18;;;;;;;7.15;4.07;;;;;;;;;;5064607;28;20025;-80
2024/03/18 09:56:51;;;;;;;10.63;3.88;;;;;;;;;;5033384;28;20033;-79
2024/03/18 09:59:17;;;;;;;8.27;3.50;;;;;;;;;;5071801;28;20063;-80
2024/03/18 10:01:43;;;;;;;22.25;5.03;;;;;;;;;;5085874;28;20187;-80
2024/03/18 10:04:11;;;;;;;12.07;4.55;;;;;;;;;;5065902;28;20055;-83
2024/03/18 10:06:39;;;;;;;9.10;3.90;;;;;;;;;;5072093;28;20028;-82
2024/03/18 10:09:08;;;;;;;15.23;4.72;;;;;;;;;;5071134;28;20048;-84
2024/03/18 10:11:37;;;;;;;14.60;4.30;;;;;;;;;;5088323;28;20049;-81
2024/03/18 10:14:03;;;;;;;6.47;3.08;;;;;;;;;;5066339;28;20047;-83
2024/03/18 10:16:29;;;;;;;14.85;3.92;;;;;;;;;;5072628;28;20060;-83
2024/03/18 10:18:56;;;;;;;13.00;4.20;;;;;;;;;;5088254;28;20028;-82
2024/03/18 10:21:26;;;;;;;12.95;4.60;;;;;;;;;;5082902;28;20365;-81
2024/03/18 10:23:54;;;;;;;14.45;5.22;;;;;;;;;;5065940;28;20071;-81
2024/03/18 10:26:24;;;;;;;17.05;6.15;;;;;;;;;;5071297;28;20029;-82
2024/03/18 10:28:51;;;;;;;10.88;4.00;;;;;;;;;;5086415;28;20023;-84
2024/03/18 10:31:17;;;;;;;12.05;4.40;;;;;;;;;;5069757;28;20013;-79
2024/03/18 10:33:48;;;;;;;13.32;4.63;;;;;;;;;;5066342;28;20116;-81
2024/03/18 10:36:27;;;;;;;11.32;4.75;;;;;;;;;;5075725;28;20063;-82
2024/03/18 10:39:09;;;;;;;12.55;4.57;;;;;;;;;;5087972;28;20027;-81
2024/03/18 10:41:39;;;;;;;;;;;;;;;;;;5087832;28;20032;-80
2024/03/18 10:44:22;;;;;;;10.30;3.92;;;;;;;;;;5084224;28;20225;-83
2024/03/18 10:46:48;;;;;;;11.20;4.50;;;;;;;;;;5062580;28;20063;-82
2024/03/18 10:49:21;;;;;;;7.93;4.28;;;;;;;;;;5058051;28;20356;-82
2024/03/18 10:51:49;;;;;;;9.05;4.72;;;;;;;;;;5091338;28;20045;-78
2024/03/18 10:54:17;;;;;;;9.30;4.75;;;;;;;;;;5069749;28;20027;-81
2024/03/18 10:56:49;;;;;;;10.90;5.18;;;;;;;;;;5071943;28;20059;-81
2024/03/18 10:59:21;;;;;;;11.18;4.40;;;;;;;;;;5081852;28;20034;-84
2024/03/18 11:01:47;;;;;;;;;;;;;;;;;;5067733;28;20043;-82
2024/03/18 11:04:28;;;;;;;11.23;4.20;;;;;;;;;;5067231;28;19912;-81
2024/03/18 11:06:55;;;;;;;9.63;3.92;;;;;;;;;;5076865;28;20036;-81
2024/03/18 11:09:23;;;;;;;7.03;3.88;;;;;;;;;;5083336;28;20040;-82
2024/03/18 11:11:50;;;;;;;8.25;3.83;;;;;;;;;;5083272;28;20039;-83
2024/03/18 11:14:30;;;;;;;9.75;3.53;;;;;;;;;;5068061;28;20054;-82
2024/03/18 11:16:56;;;;;;;13.00;3.72;;;;;;;;;;5064926;28;20054;-80
2024/03/18 11:19:27;;;;;;;8.07;3.67;;;;;;;;;;5083451;28;20565;-80
2024/03/18 11:22:06;;;;;;;8.13;3.88;;;;;;;;;;5065976;28;20424;-80
2024/03/18 11:24:32;;;;;;;10.77;4.38;;;;;;;;;;5062315;28;20031;-80
2024/03/18 11:27:00;;;;;;;8.38;3.53;;;;;;;;;;5100514;28;20028;-80
2024/03/18 11:29:39;;;;;;;7.57;3.63;;;;;;;;;;5080381;28;20030;-78
2024/03/18 11:32:08;;;;;;;8.88;4.30;;;;;;;;;;5073547;28;20023;-80
2024/03/18 11:34:36;;;;;;;7.28;3.38;;;;;;;;;;5082235;28;20077;-82
2024/03/18 11:37:07;;;;;;;7.47;3.95;;;;;;;;;;5063112;28;20036;-84
2024/03/18 11:39:33;;;;;;;7.65;3.60;;;;;;;;;;5060554;28;20119;-83
2024/03/18 11:42:03;;;;;;;5.03;3.45;;;;;;;;;;5044713;28;20179;-82
2024/03/18 11:44:32;;;;;;;10.02;3.88;;;;;;;;;;5086952;28;20439;-80
2024/03/18 11:47:05;;;;;;;10.32;3.85;;;;;;;;;;5061268;28;20136;-82
2024/03/18 11:49:33;;;;;;;12.23;3.78;;;;;;;;;;5056775;28;20024;-82
2024/03/18 11:51:59;;;;;;;14.48;4.43;;;;;;;;;;5072074;28;20017;-80
2024/03/18 11:54:28;;;;;;;11.15;4.15;;;;;;;;;;5076186;28;20027;-80
2024/03/18 11:57:01;;;;;;;7.18;3.92;;;;;;;;;;5077117;28;20043;-82
2024/03/18 11:59:27;;;;;;;16.63;6.35;;;;;;;;;;5068750;28;20048;-78
2024/03/18 12:01:55;;;;;;;13.77;5.43;;;;;;;;;;5075686;28;20042;-80
2024/03/18 12:04:21;;;;;;;12.00;5.72;;;;;;;;;;5077599;28;20059;-78
2024/03/18 12:06:49;;;;;;;9.77;4.72;;;;;;;;;;5058428;28;20025;-82
2024/03/18 12:09:16;;;;;;;9.18;4.80;;;;;;;;;;5060044;28;20376;-80
2024/03/18 12:11:42;;;;;;;10.80;4.50;;;;;;;;;;5052710;28;20535;-80
2024/03/18 12:14:09;;;;;;;8.15;4.10;;;;;;;;;;5051913;28;20044;-79
2024/03/18 12:16:36;;;;;;;14.93;5.85;;;;;;;;;;5060520;28;20031;-80
2024/03/18 12:19:26;;;;;;;11.07;4.57;;;;;;;;;;5059609;28;20033;-78
2024/03/18 12:21:53;;;;;;;8.98;4.13;;;;;;;;;;5058328;28;20024;-79
2024/03/18 12:29:58;;;;;;;8.88;3.15;;;;;;;;;;5068131;28;20573;-78
2024/03/18 12:32:24;;;;;;;9.75;4.32;;;;;;;;;;5076180;28;20024;-80
2024/03/18 12:34:52;;;;;;;10.02;4.35;;;;;;;;;;5071986;28;20028;-77
2024/03/18 12:37:22;;;;;;;8.73;4.95;;;;;;;;;;5061981;28;20134;-79
2024/03/18 12:39:56;;;;;;;8.30;4.25;;;;;;;;;;5062263;28;20031;-80
2024/03/18 12:42:23;;;;;;;8.95;4.05;;;;;;;;;;5080866;28;20020;-82
2024/03/18 12:44:49;;;;;;;8.85;3.75;;;;;;;;;;5060493;28;20380;-83
2024/03/18 12:47:15;;;;;;;10.48;4.18;;;;;;;;;;5059244;28;20078;-84
2024/03/18 12:50:02;;;;;;;10.00;4.25;;;;;;;;;;5062348;28;20024;-83
2024/03/18 12:52:28;;;;;;;17.10;4.60;;;;;;;;;;5077285;28;20579;-80
2024/03/18 12:54:56;;;;;;;9.18;4.15;;;;;;;;;;5057629;28;20119;-81
2024/03/18 12:57:25;;;;;;;8.23;4.55;;;;;;;;;;5079783;28;20024;-79
2024/03/18 12:59:52;;;;;;;9.20;4.10;;;;;;;;;;5084554;28;20032;-81
2024/03/18 13:02:19;;;;;;;5.78;3.15;;;;;;;;;;5080950;28;20032;-80
2024/03/18 13:04:48;;;;;;;10.02;4.30;;;;;;;;;;5070825;28;20407;-82
2024/03/18 13:07:16;;;;;;;9.00;4.20;;;;;;;;;;5081569;28;20031;-80
2024/03/18 13:09:47;;;;;;;14.55;4.20;;;;;;;;;;5061862;28;20025;-81
2024/03/18 13:12:12;;;;;;;12.23;3.90;;;;;;;;;;5060058;28;20111;-80
2024/03/18 13:14:38;;;;;;;8.73;3.97;;;;;;;;;;5058836;28;20070;-80
2024/03/18 13:17:04;;;;;;;9.00;3.67;;;;;;;;;;5073312;28;20031;-79
2024/03/18 13:19:30;;;;;;;9.32;3.80;;;;;;;;;;5068333;28;20021;-79
2024/03/18 13:21:57;;;;;;;10.30;3.90;;;;;;;;;;5075627;28;20078;-80
2024/03/18 13:24:26;;;;;;;8.80;4.53;;;;;;;;;;5055543;28;20027;-79
2024/03/18 13:26:52;;;;;;;11.85;3.67;;;;;;;;;;5044066;28;20100;-81
2024/03/18 13:29:22;;;;;;;14.77;3.97;;;;;;;;;;5054387;28;20025;-78
2024/03/18 13:31:51;;;;;;;11.20;3.60;;;;;;;;;;5050829;28;20031;-79
2024/03/18 13:34:17;;;;;;;8.27;3.67;;;;;;;;;;5071736;28;20060;-79
2024/03/18 13:36:43;;;;;;;7.85;3.83;;;;;;;;;;5081520;28;20029;-79
2024/03/18 13:39:09;;;;;;;10.80;4.13;;;;;;;;;;5069296;28;20035;-78
2024/03/18 13:41:35;;;;;;;6.22;3.58;;;;;;;;;;5058082;28;20032;-80
2024/03/18 13:44:01;;;;;;;10.57;3.53;;;;;;;;;;5018211;28;20029;-78
2024/03/18 13:46:27;;;;;;;8.20;3.22;;;;;;;;;;5052962;28;20086;-80
2024/03/18 13:48:53;;;;;;;5.80;3.83;;;;;;;;;;5046741;28;20384;-78
2024/03/18 13:51:20;;;;;;;7.43;3.72;;;;;;;;;;5048557;28;20065;-78
2024/03/18 13:53:46;;;;;;;8.35;3.80;;;;;;;;;;5063975;28;20464;-80
2024/03/18 13:56:15;;;;;;;6.35;3.25;;;;;;;;;;5069593;28;20029;-77
2024/03/18 13:58:42;;;;;;;10.85;4.07;;;;;;;;;;5059814;28;20376;-78
2024/03/18 14:01:14;;;;;;;8.55;3.60;;;;;;;;;;5073731;28;20457;-78
2024/03/18 14:03:40;;;;;;;5.07;3.22;;;;;;;;;;5072383;28;20047;-77
2024/03/18 14:06:08;;;;;;;6.68;3.33;;;;;;;;;;5057360;28;20028;-78
2024/03/18 14:08:35;;;;;;;5.57;3.05;;;;;;;;;;5054211;28;20044;-77
2024/03/18 14:11:02;;;;;;;5.38;3.28;;;;;;;;;;5044932;28;20040;-81
2024/03/18 14:13:29;;;;;;;9.82;3.55;;;;;;;;;;5070611;28;20037;-79
2024/03/18 14:15:55;;;;;;;4.70;3.17;;;;;;;;;;5044717;28;20429;-78
2024/03/18 14:18:24;;;;;;;4.88;3.05;;;;;;;;;;5061254;28;20506;-80
2024/03/18 14:20:52;;;;;;;8.50;3.90;;;;;;;;;;5062325;28;20504;-80
2024/03/18 14:23:18;;;;;;;9.70;3.35;;;;;;;;;;5058111;28;20028;-81
2024/03/18 14:25:44;;;;;;;5.95;3.15;;;;;;;;;;5064520;28;20032;-82
2024/03/18 14:28:09;;;;;;;9.02;3.70;;;;;;;;;;5083265;28;20031;-81
2024/03/18 14:30:35;;;;;;;10.20;4.18;;;;;;;;;;5063403;28;20027;-80
2024/03/18 14:33:01;;;;;;;23.95;18.83;;;;;;;;;;5082019;28;20056;-80